sensor_id;sensor_type;location;lat;lon;timestamp;pressure;altitude;pressure_sealevel;temperature;humidity
52839;BME280;39219;53.678;9.856;2022-10-31T00:01:50;101642.22;;;10.19;100.00
52839;BME280;39219;53.678;9.856;2022-10-31T00:04:16;101647.50;;;10.20;100.00
52839;BME280;39219;53.678;9.856;2022-10-31T00:06:43;101643.88;;;10.32;100.00
52839;BME280;39219;53.678;9.856;2022-10-31T00:09:10;101654.41;;;10.46;100.00
52839;BME280;39219;53.678;9.856;2022-10-31T00:11:37;101648.19;;;10.49;100.00
52839;BME280;39219;53.678;9.856;2022-10-31T00:14:04;101642.84;;;10.54;100.00
52839;BME280;39219;53.678;9.856;2022-10-31T00:16:30;101646.31;;;10.60;100.00
52839;BME280;39219;53.678;9.856;2022-10-31T00:18:59;101651.59;;;10.62;100.00
52839;BME280;39219;53.678;9.856;2022-10-31T00:21:26;101652.56;;;10.58;100.00
52839;BME280;39219;53.678;9.856;2022-10-31T00:23:53;101653.41;;;10.61;100.00
52839;BME280;39219;53.678;9.856;2022-10-31T00:26:21;101654.34;;;10.54;100.00
52839;BME280;39219;53.678;9.856;2022-10-31T00:28:48;101662.34;;;10.51;100.00
52839;BME280;39219;53.678;9.856;2022-10-31T00:31:16;101665.09;;;10.34;100.00
52839;BME280;39219;53.678;9.856;2022-10-31T00:33:42;101656.31;;;10.26;100.00
52839;BME280;39219;53.678;9.856;2022-10-31T00:36:15;101655.38;;;10.39;100.00
52839;BME280;39219;53.678;9.856;2022-10-31T00:38:43;101658.81;;;10.49;100.00
52839;BME280;39219;53.678;9.856;2022-10-31T00:41:10;101642.81;;;10.60;100.00
52839;BME280;39219;53.678;9.856;2022-10-31T00:43:38;101648.00;;;10.69;100.00
52839;BME280;39219;53.678;9.856;2022-10-31T00:46:04;101651.56;;;10.66;100.00
52839;BME280;39219;53.678;9.856;2022-10-31T00:48:31;101650.84;;;10.49;100.00
52839;BME280;39219;53.678;9.856;2022-10-31T00:50:57;101649.13;;;10.43;100.00
52839;BME280;39219;53.678;9.856;2022-10-31T00:53:24;101656.25;;;10.33;100.00
52839;BME280;39219;53.678;9.856;2022-10-31T00:55:51;101663.41;;;10.25;100.00
52839;BME280;39219;53.678;9.856;2022-10-31T00:58:17;101657.31;;;10.14;100.00
52839;BME280;39219;53.678;9.856;2022-10-31T01:00:46;101657.34;;;10.07;100.00
52839;BME280;39219;53.678;9.856;2022-10-31T01:03:16;101659.06;;;10.10;100.00
52839;BME280;39219;53.678;9.856;2022-10-31T01:05:42;101668.81;;;10.10;100.00
52839;BME280;39219;53.678;9.856;2022-10-31T01:08:08;101672.31;;;10.16;100.00
52839;BME280;39219;53.678;9.856;2022-10-31T01:10:35;101677.59;;;10.19;100.00
52839;BME280;39219;53.678;9.856;2022-10-31T01:13:01;101682.09;;;10.10;100.00
52839;BME280;39219;53.678;9.856;2022-10-31T01:15:28;101686.53;;;10.03;100.00
52839;BME280;39219;53.678;9.856;2022-10-31T01:17:55;101685.66;;;10.01;100.00
52839;BME280;39219;53.678;9.856;2022-10-31T01:20:22;101682.13;;;10.06;100.00
52839;BME280;39219;53.678;9.856;2022-10-31T01:22:48;101688.25;;;10.15;100.00
52839;BME280;39219;53.678;9.856;2022-10-31T01:25:15;101693.56;;;10.10;100.00
52839;BME280;39219;53.678;9.856;2022-10-31T01:27:41;101694.44;;;10.15;100.00
52839;BME280;39219;53.678;9.856;2022-10-31T01:30:08;101689.16;;;10.14;100.00
52839;BME280;39219;53.678;9.856;2022-10-31T01:32:35;101698.03;;;10.05;100.00
52839;BME280;39219;53.678;9.856;2022-10-31T01:35:03;101697.25;;;9.93;100.00
52839;BME280;39219;53.678;9.856;2022-10-31T01:37:30;101700.66;;;10.11;100.00
52839;BME280;39219;53.678;9.856;2022-10-31T01:39:57;101685.44;;;10.33;100.00
52839;BME280;39219;53.678;9.856;2022-10-31T01:42:23;101703.13;;;10.42;100.00
52839;BME280;39219;53.678;9.856;2022-10-31T01:44:55;101703.06;;;10.51;100.00
52839;BME280;39219;53.678;9.856;2022-10-31T01:47:31;101703.91;;;10.55;100.00
52839;BME280;39219;53.678;9.856;2022-10-31T01:50:01;101709.25;;;10.54;100.00
52839;BME280;39219;53.678;9.856;2022-10-31T01:52:33;101718.09;;;10.56;100.00
52839;BME280;39219;53.678;9.856;2022-10-31T01:55:06;101711.94;;;10.50;100.00
52839;BME280;39219;53.678;9.856;2022-10-31T01:57:35;101715.44;;;10.54;100.00
52839;BME280;39219;53.678;9.856;2022-10-31T02:00:06;101709.16;;;10.64;100.00
52839;BME280;39219;53.678;9.856;2022-10-31T02:02:33;101712.53;;;10.80;100.00
52839;BME280;39219;53.678;9.856;2022-10-31T02:05:01;101717.66;;;11.02;100.00
52839;BME280;39219;53.678;9.856;2022-10-31T02:07:33;101712.19;;;11.18;100.00
52839;BME280;39219;53.678;9.856;2022-10-31T02:10:02;101706.78;;;11.25;100.00
52839;BME280;39219;53.678;9.856;2022-10-31T02:12:30;101714.63;;;11.36;100.00
52839;BME280;39219;53.678;9.856;2022-10-31T02:14:58;101719.06;;;11.37;100.00
52839;BME280;39219;53.678;9.856;2022-10-31T02:17:24;101726.16;;;11.37;100.00
52839;BME280;39219;53.678;9.856;2022-10-31T02:19:54;101730.56;;;11.41;100.00
52839;BME280;39219;53.678;9.856;2022-10-31T02:22:29;101726.97;;;11.45;100.00
52839;BME280;39219;53.678;9.856;2022-10-31T02:25:08;101732.19;;;11.54;100.00
52839;BME280;39219;53.678;9.856;2022-10-31T02:27:58;101728.59;;;11.59;100.00
52839;BME280;39219;53.678;9.856;2022-10-31T02:30:31;101731.19;;;11.62;100.00
52839;BME280;39219;53.678;9.856;2022-10-31T02:33:17;101742.72;;;11.61;100.00
52839;BME280;39219;53.678;9.856;2022-10-31T02:35:53;101747.13;;;11.63;100.00
52839;BME280;39219;53.678;9.856;2022-10-31T02:38:30;101742.78;;;11.56;100.00
52839;BME280;39219;53.678;9.856;2022-10-31T02:41:04;101736.47;;;11.65;100.00
52839;BME280;39219;53.678;9.856;2022-10-31T02:43:40;101731.94;;;11.75;100.00
52839;BME280;39219;53.678;9.856;2022-10-31T02:46:13;101736.25;;;11.85;100.00
52839;BME280;39219;53.678;9.856;2022-10-31T02:48:44;101745.03;;;11.89;100.00
52839;BME280;39219;53.678;9.856;2022-10-31T02:51:12;101740.69;;;11.83;100.00
52839;BME280;39219;53.678;9.856;2022-10-31T02:53:39;101733.50;;;11.91;100.00
52839;BME280;39219;53.678;9.856;2022-10-31T02:56:08;101745.91;;;11.92;100.00
52839;BME280;39219;53.678;9.856;2022-10-31T02:58:39;101747.59;;;11.98;100.00
52839;BME280;39219;53.678;9.856;2022-10-31T03:01:26;101743.94;;;12.07;100.00
52839;BME280;39219;53.678;9.856;2022-10-31T03:06:52;101748.31;;;12.12;100.00
52839;BME280;39219;53.678;9.856;2022-10-31T03:09:25;101753.59;;;12.14;100.00
52839;BME280;39219;53.678;9.856;2022-10-31T03:11:58;101760.59;;;12.21;100.00
52839;BME280;39219;53.678;9.856;2022-10-31T03:14:30;101757.88;;;12.26;100.00
52839;BME280;39219;53.678;9.856;2022-10-31T03:17:03;101764.94;;;12.28;100.00
52839;BME280;39219;53.678;9.856;2022-10-31T03:19:39;101767.63;;;12.28;100.00
52839;BME280;39219;53.678;9.856;2022-10-31T03:22:12;101766.66;;;12.33;100.00
52839;BME280;39219;53.678;9.856;2022-10-31T03:24:41;101762.16;;;12.38;100.00
52839;BME280;39219;53.678;9.856;2022-10-31T03:27:11;101779.03;;;12.35;100.00
52839;BME280;39219;53.678;9.856;2022-10-31T03:29:40;101774.66;;;12.33;100.00
52839;BME280;39219;53.678;9.856;2022-10-31T03:32:10;101772.84;;;12.35;100.00
52839;BME280;39219;53.678;9.856;2022-10-31T03:34:41;101776.34;;;12.40;100.00
52839;BME280;39219;53.678;9.856;2022-10-31T03:37:14;101780.75;;;12.41;100.00
52839;BME280;39219;53.678;9.856;2022-10-31T03:39:43;101789.66;;;12.40;100.00
52839;BME280;39219;53.678;9.856;2022-10-31T03:42:13;101792.44;;;12.31;100.00
52839;BME280;39219;53.678;9.856;2022-10-31T03:44:44;101793.31;;;12.33;100.00
52839;BME280;39219;53.678;9.856;2022-10-31T03:47:12;101797.69;;;12.37;100.00
52839;BME280;39219;53.678;9.856;2022-10-31T03:49:40;101807.47;;;12.33;100.00
52839;BME280;39219;53.678;9.856;2022-10-31T03:52:13;101803.06;;;12.34;100.00
52839;BME280;39219;53.678;9.856;2022-10-31T03:54:46;101806.56;;;12.36;100.00
52839;BME280;39219;53.678;9.856;2022-10-31T03:57:18;101812.72;;;12.39;100.00
52839;BME280;39219;53.678;9.856;2022-10-31T03:59:49;101810.06;;;12.41;100.00
52839;BME280;39219;53.678;9.856;2022-10-31T04:02:20;101812.69;;;12.44;100.00
52839;BME280;39219;53.678;9.856;2022-10-31T04:04:50;101816.13;;;12.51;100.00
52839;BME280;39219;53.678;9.856;2022-10-31T04:07:18;101821.41;;;12.54;100.00
52839;BME280;39219;53.678;9.856;2022-10-31T04:09:47;101817.75;;;12.61;100.00
52839;BME280;39219;53.678;9.856;2022-10-31T04:12:15;101816.72;;;12.70;100.00
52839;BME280;39219;53.678;9.856;2022-10-31T04:14:44;101823.78;;;12.74;100.00
52839;BME280;39219;53.678;9.856;2022-10-31T04:17:15;101819.38;;;12.71;100.00
52839;BME280;39219;53.678;9.856;2022-10-31T04:19:43;101814.06;;;12.71;100.00
52839;BME280;39219;53.678;9.856;2022-10-31T04:22:10;101818.38;;;12.77;100.00
52839;BME280;39219;53.678;9.856;2022-10-31T04:24:38;101822.81;;;12.78;100.00
52839;BME280;39219;53.678;9.856;2022-10-31T04:27:06;101819.25;;;12.79;100.00
52839;BME280;39219;53.678;9.856;2022-10-31T04:29:32;101824.53;;;12.82;100.00
52839;BME280;39219;53.678;9.856;2022-10-31T04:31:59;101825.38;;;12.84;100.00
52839;BME280;39219;53.678;9.856;2022-10-31T04:34:25;101833.34;;;12.89;100.00
52839;BME280;39219;53.678;9.856;2022-10-31T04:36:51;101838.59;;;12.92;100.00
52839;BME280;39219;53.678;9.856;2022-10-31T04:39:19;101837.66;;;12.95;100.00
52839;BME280;39219;53.678;9.856;2022-10-31T04:41:46;101839.44;;;12.96;100.00
52839;BME280;39219;53.678;9.856;2022-10-31T04:44:12;101835.78;;;13.01;100.00
52839;BME280;39219;53.678;9.856;2022-10-31T04:46:38;101849.91;;;13.07;100.00
52839;BME280;39219;53.678;9.856;2022-10-31T04:49:05;101838.38;;;13.06;100.00
52839;BME280;39219;53.678;9.856;2022-10-31T04:51:31;101842.81;;;13.06;100.00
52839;BME280;39219;53.678;9.856;2022-10-31T04:53:58;101840.19;;;13.02;100.00
52839;BME280;39219;53.678;9.856;2022-10-31T04:56:25;101845.47;;;13.06;100.00
52839;BME280;39219;53.678;9.856;2022-10-31T04:58:52;101850.81;;;13.06;100.00
52839;BME280;39219;53.678;9.856;2022-10-31T05:01:18;101849.00;;;13.08;100.00
52839;BME280;39219;53.678;9.856;2022-10-31T05:03:45;101860.53;;;13.11;100.00
52839;BME280;39219;53.678;9.856;2022-10-31T05:06:11;101860.53;;;13.11;100.00
52839;BME280;39219;53.678;9.856;2022-10-31T05:08:38;101856.09;;;13.09;100.00
52839;BME280;39219;53.678;9.856;2022-10-31T05:11:04;101849.06;;;13.06;100.00
52839;BME280;39219;53.678;9.856;2022-10-31T05:13:32;101848.06;;;13.12;100.00
52839;BME280;39219;53.678;9.856;2022-10-31T05:15:59;101849.91;;;13.07;100.00
52839;BME280;39219;53.678;9.856;2022-10-31T05:18:25;101849.91;;;13.08;100.00
52839;BME280;39219;53.678;9.856;2022-10-31T05:20:52;101851.72;;;13.06;100.00
52839;BME280;39219;53.678;9.856;2022-10-31T05:23:18;101845.53;;;13.04;100.00
52839;BME280;39219;53.678;9.856;2022-10-31T05:25:45;101848.09;;;13.09;100.00
52839;BME280;39219;53.678;9.856;2022-10-31T05:28:11;101844.53;;;13.10;100.00
52839;BME280;39219;53.678;9.856;2022-10-31T05:30:39;101841.88;;;13.10;100.00
52839;BME280;39219;53.678;9.856;2022-10-31T05:33:05;101847.25;;;13.07;100.00
52839;BME280;39219;53.678;9.856;2022-10-31T05:35:32;101843.75;;;13.03;100.00
52839;BME280;39219;53.678;9.856;2022-10-31T05:37:59;101844.63;;;13.05;100.00
52839;BME280;39219;53.678;9.856;2022-10-31T05:40:26;101846.38;;;13.04;100.00
52839;BME280;39219;53.678;9.856;2022-10-31T05:42:54;101852.56;;;13.08;100.00
52839;BME280;39219;53.678;9.856;2022-10-31T05:45:22;101844.53;;;13.10;100.00
52839;BME280;39219;53.678;9.856;2022-10-31T05:47:54;101848.09;;;13.10;100.00
52839;BME280;39219;53.678;9.856;2022-10-31T05:50:21;101855.19;;;13.11;100.00
52839;BME280;39219;53.678;9.856;2022-10-31T05:52:54;101855.19;;;13.10;100.00
52839;BME280;39219;53.678;9.856;2022-10-31T05:55:21;101857.81;;;13.14;100.00
52839;BME280;39219;53.678;9.856;2022-10-31T05:57:48;101851.56;;;13.14;100.00
52839;BME280;39219;53.678;9.856;2022-10-31T06:00:14;101849.81;;;13.13;100.00
52839;BME280;39219;53.678;9.856;2022-10-31T06:02:41;101853.44;;;13.10;100.00
52839;BME280;39219;53.678;9.856;2022-10-31T06:05:09;101848.06;;;13.12;100.00
52839;BME280;39219;53.678;9.856;2022-10-31T06:07:35;101849.81;;;13.13;100.00
52839;BME280;39219;53.678;9.856;2022-10-31T06:10:03;101861.34;;;13.15;100.00
52839;BME280;39219;53.678;9.856;2022-10-31T06:12:30;101868.38;;;13.21;100.00
52839;BME280;39219;53.678;9.856;2022-10-31T06:14:57;101871.00;;;13.22;100.00
52839;BME280;39219;53.678;9.856;2022-10-31T06:17:23;101876.38;;;13.19;100.00
52839;BME280;39219;53.678;9.856;2022-10-31T06:19:50;101874.69;;;13.15;100.00
52839;BME280;39219;53.678;9.856;2022-10-31T06:22:17;101874.63;;;13.20;100.00
52839;BME280;39219;53.678;9.856;2022-10-31T06:24:44;101871.03;;;13.21;100.00
52839;BME280;39219;53.678;9.856;2022-10-31T06:27:10;101866.63;;;13.20;100.00
52839;BME280;39219;53.678;9.856;2022-10-31T06:29:37;101874.63;;;13.20;100.00
52839;BME280;39219;53.678;9.856;2022-10-31T06:32:03;101865.72;;;13.21;100.00
52839;BME280;39219;53.678;9.856;2022-10-31T06:34:30;101871.91;;;13.23;100.00
52839;BME280;39219;53.678;9.856;2022-10-31T06:36:56;101874.63;;;13.20;100.00
52839;BME280;39219;53.678;9.856;2022-10-31T06:39:24;101884.34;;;13.22;100.00
52839;BME280;39219;53.678;9.856;2022-10-31T06:41:51;101881.66;;;13.24;100.00
52839;BME280;39219;53.678;9.856;2022-10-31T06:44:17;101884.25;;;13.27;100.00
52839;BME280;39219;53.678;9.856;2022-10-31T06:46:46;101887.81;;;13.27;100.00
52839;BME280;39219;53.678;9.856;2022-10-31T06:49:12;101896.72;;;13.26;100.00
52839;BME280;39219;53.678;9.856;2022-10-31T06:51:39;101896.75;;;13.25;100.00
52839;BME280;39219;53.678;9.856;2022-10-31T06:54:05;101898.50;;;13.26;100.00
52839;BME280;39219;53.678;9.856;2022-10-31T06:56:33;101906.50;;;13.26;100.00
52839;BME280;39219;53.678;9.856;2022-10-31T06:59:00;101912.72;;;13.26;100.00
52839;BME280;39219;53.678;9.856;2022-10-31T07:01:26;101909.16;;;13.27;100.00
52839;BME280;39219;53.678;9.856;2022-10-31T07:03:53;101909.16;;;13.27;100.00
52839;BME280;39219;53.678;9.856;2022-10-31T07:06:19;101907.44;;;13.25;100.00
52839;BME280;39219;53.678;9.856;2022-10-31T07:08:46;101924.34;;;13.24;100.00
52839;BME280;39219;53.678;9.856;2022-10-31T07:11:12;101921.63;;;13.25;100.00
52839;BME280;39219;53.678;9.856;2022-10-31T07:13:40;101919.00;;;13.24;100.00
52839;BME280;39219;53.678;9.856;2022-10-31T07:16:07;101928.72;;;13.26;100.00
52839;BME280;39219;53.678;9.856;2022-10-31T07:18:37;101932.44;;;13.17;100.00
52839;BME280;39219;53.678;9.856;2022-10-31T07:21:04;101937.78;;;13.16;100.00
52839;BME280;39219;53.678;9.856;2022-10-31T07:23:30;101943.97;;;13.18;100.00
52839;BME280;39219;53.678;9.856;2022-10-31T07:25:57;101946.63;;;13.20;100.00
52839;BME280;39219;53.678;9.856;2022-10-31T07:28:24;101936.00;;;13.16;100.00
52839;BME280;39219;53.678;9.856;2022-10-31T07:30:52;101939.47;;;13.22;100.00
52839;BME280;39219;53.678;9.856;2022-10-31T07:33:19;101944.09;;;13.09;100.00
52839;BME280;39219;53.678;9.856;2022-10-31T07:35:46;101938.84;;;13.04;100.00
52839;BME280;39219;53.678;9.856;2022-10-31T07:38:13;101938.84;;;13.04;100.00
52839;BME280;39219;53.678;9.856;2022-10-31T07:40:41;101940.66;;;13.02;100.00
52839;BME280;39219;53.678;9.856;2022-10-31T07:43:08;101946.84;;;13.04;100.00
52839;BME280;39219;53.678;9.856;2022-10-31T07:45:36;101947.63;;;13.11;100.00
52839;BME280;39219;53.678;9.856;2022-10-31T07:48:04;101945.81;;;13.14;100.00
52839;BME280;39219;53.678;9.856;2022-10-31T07:50:32;101947.50;;;13.20;100.00
52839;BME280;39219;53.678;9.856;2022-10-31T07:53:00;101946.59;;;13.23;100.00
52839;BME280;39219;53.678;9.856;2022-10-31T07:55:26;101951.84;;;13.27;100.00
52839;BME280;39219;53.678;9.856;2022-10-31T07:57:57;101951.78;;;13.29;100.00
52839;BME280;39219;53.678;9.856;2022-10-31T08:00:24;101959.75;;;13.32;100.00
52839;BME280;39219;53.678;9.856;2022-10-31T08:02:56;101952.66;;;13.32;100.00
52839;BME280;39219;53.678;9.856;2022-10-31T08:05:24;101954.34;;;13.37;100.00
52839;BME280;39219;53.678;9.856;2022-10-31T08:07:51;101957.94;;;13.34;100.00
52839;BME280;39219;53.678;9.856;2022-10-31T08:10:17;101962.63;;;13.18;100.00
52839;BME280;39219;53.678;9.856;2022-10-31T08:12:44;101953.91;;;13.07;100.00
52839;BME280;39219;53.678;9.856;2022-10-31T08:15:10;101953.25;;;12.91;100.00
52839;BME280;39219;53.678;9.856;2022-10-31T08:17:37;101949.78;;;12.87;100.00
52839;BME280;39219;53.678;9.856;2022-10-31T08:20:05;101940.88;;;12.88;100.00
52839;BME280;39219;53.678;9.856;2022-10-31T08:22:33;101958.47;;;12.98;100.00
52839;BME280;39219;53.678;9.856;2022-10-31T08:24:59;101952.09;;;13.10;100.00
52839;BME280;39219;53.678;9.856;2022-10-31T08:27:26;101963.50;;;13.20;100.00
52839;BME280;39219;53.678;9.856;2022-10-31T08:29:53;101958.06;;;13.26;100.00
52839;BME280;39219;53.678;9.856;2022-10-31T08:32:19;101958.88;;;13.30;100.00
52839;BME280;39219;53.678;9.856;2022-10-31T08:34:46;101956.13;;;13.38;100.00
52839;BME280;39219;53.678;9.856;2022-10-31T08:37:12;101953.38;;;13.44;100.00
52839;BME280;39219;53.678;9.856;2022-10-31T08:39:45;101955.09;;;13.48;100.00
52839;BME280;39219;53.678;9.856;2022-10-31T08:42:11;101953.19;;;13.55;100.00
52839;BME280;39219;53.678;9.856;2022-10-31T08:44:38;101953.28;;;13.50;100.00
52839;BME280;39219;53.678;9.856;2022-10-31T08:47:04;101959.50;;;13.51;100.00
52839;BME280;39219;53.678;9.856;2022-10-31T08:49:31;101946.16;;;13.52;100.00
52839;BME280;39219;53.678;9.856;2022-10-31T08:51:57;101951.34;;;13.60;100.00
52839;BME280;39219;53.678;9.856;2022-10-31T08:54:24;101961.06;;;13.64;100.00
52839;BME280;39219;53.678;9.856;2022-10-31T08:56:54;101966.31;;;13.69;100.00
52839;BME280;39219;53.678;9.856;2022-10-31T08:59:21;101965.28;;;13.77;100.00
52839;BME280;39219;53.678;9.856;2022-10-31T09:01:47;101972.44;;;13.75;100.00
52839;BME280;39219;53.678;9.856;2022-10-31T09:04:14;101976.81;;;13.80;100.00
52839;BME280;39219;53.678;9.856;2022-10-31T09:06:41;101975.59;;;13.96;100.00
52839;BME280;39219;53.678;9.856;2022-10-31T09:09:07;101970.84;;;14.15;100.00
52839;BME280;39219;53.678;9.856;2022-10-31T09:11:34;101962.50;;;14.31;100.00
52839;BME280;39219;53.678;9.856;2022-10-31T09:14:01;101953.31;;;14.44;100.00
52839;BME280;39219;53.678;9.856;2022-10-31T09:16:28;101947.69;;;14.58;100.00
52839;BME280;39219;53.678;9.856;2022-10-31T09:18:54;101946.63;;;14.65;100.00
52839;BME280;39219;53.678;9.856;2022-10-31T09:21:21;101946.53;;;14.72;100.00
52839;BME280;39219;53.678;9.856;2022-10-31T09:23:47;101936.69;;;14.74;100.00
52839;BME280;39219;53.678;9.856;2022-10-31T09:26:13;101937.91;;;15.00;100.00
52839;BME280;39219;53.678;9.856;2022-10-31T09:28:40;101936.03;;;15.03;100.00
52839;BME280;39219;53.678;9.856;2022-10-31T09:31:08;101938.34;;;15.20;100.00
52839;BME280;39219;53.678;9.856;2022-10-31T09:33:34;101940.44;;;15.44;100.00
52839;BME280;39219;53.678;9.856;2022-10-31T09:36:00;101950.09;;;15.49;100.00
52839;BME280;39219;53.678;9.856;2022-10-31T09:38:27;101952.06;;;15.43;100.00
52839;BME280;39219;53.678;9.856;2022-10-31T09:40:56;101957.81;;;15.25;100.00
52839;BME280;39219;53.678;9.856;2022-10-31T09:43:32;101953.50;;;15.20;100.00
52839;BME280;39219;53.678;9.856;2022-10-31T09:46:08;101956.56;;;15.03;100.00
52839;BME280;39219;53.678;9.856;2022-10-31T09:48:50;101960.72;;;15.16;100.00
52839;BME280;39219;53.678;9.856;2022-10-31T09:51:23;101973.19;;;15.17;100.00
52839;BME280;39219;53.678;9.856;2022-10-31T09:53:54;101975.44;;;14.97;100.00
52839;BME280;39219;53.678;9.856;2022-10-31T09:56:25;101977.06;;;15.04;100.00
52839;BME280;39219;53.678;9.856;2022-10-31T09:58:54;101984.09;;;15.08;100.00
52839;BME280;39219;53.678;9.856;2022-10-31T10:01:33;101974.88;;;15.21;100.00
52839;BME280;39219;53.678;9.856;2022-10-31T10:04:05;101977.28;;;15.32;100.00
52839;BME280;39219;53.678;9.856;2022-10-31T10:06:35;101977.28;;;15.32;100.00
52839;BME280;39219;53.678;9.856;2022-10-31T10:09:07;101976.31;;;15.36;100.00
52839;BME280;39219;53.678;9.856;2022-10-31T10:11:43;101968.81;;;15.51;100.00
52839;BME280;39219;53.678;9.856;2022-10-31T10:17:13;101974.75;;;15.26;100.00
52839;BME280;39219;53.678;9.856;2022-10-31T10:19:53;101982.81;;;15.24;100.00
52839;BME280;39219;53.678;9.856;2022-10-31T10:22:30;101970.13;;;15.33;100.00
52839;BME280;39219;53.678;9.856;2022-10-31T10:25:13;101977.22;;;15.34;100.00
52839;BME280;39219;53.678;9.856;2022-10-31T10:27:47;101973.56;;;15.38;100.00
52839;BME280;39219;53.678;9.856;2022-10-31T10:30:17;101970.88;;;15.39;100.00
52839;BME280;39219;53.678;9.856;2022-10-31T10:32:48;101972.72;;;15.36;100.00
52839;BME280;39219;53.678;9.856;2022-10-31T10:35:20;101980.66;;;15.40;100.00
52839;BME280;39219;53.678;9.856;2022-10-31T10:37:50;101977.91;;;15.44;100.00
52839;BME280;39219;53.678;9.856;2022-10-31T10:40:20;101980.72;;;15.37;100.00
52839;BME280;39219;53.678;9.856;2022-10-31T10:42:56;101970.25;;;15.27;100.00
52839;BME280;39219;53.678;9.856;2022-10-31T10:45:45;101964.91;;;15.27;100.00
52839;BME280;39219;53.678;9.856;2022-10-31T10:48:39;101959.41;;;15.33;100.00
52839;BME280;39219;53.678;9.856;2022-10-31T10:51:15;101959.41;;;15.33;100.00
52839;BME280;39219;53.678;9.856;2022-10-31T10:53:53;101953.38;;;15.24;100.00
52839;BME280;39219;53.678;9.856;2022-10-31T10:56:46;101943.22;;;15.01;100.00
52839;BME280;39219;53.678;9.856;2022-10-31T10:59:18;101940.47;;;15.04;100.00
52839;BME280;39219;53.678;9.856;2022-10-31T11:01:48;101932.50;;;15.01;100.00
52839;BME280;39219;53.678;9.856;2022-10-31T11:04:29;101933.19;;;15.11;100.00
52839;BME280;39219;53.678;9.856;2022-10-31T11:07:05;101936.56;;;15.19;100.00
52839;BME280;39219;53.678;9.856;2022-10-31T11:09:32;101948.06;;;15.23;100.00
52839;BME280;39219;53.678;9.856;2022-10-31T11:12:00;101940.16;;;15.18;100.00
52839;BME280;39219;53.678;9.856;2022-10-31T11:14:35;101941.09;;;15.17;100.00
52839;BME280;39219;53.678;9.856;2022-10-31T11:17:09;101939.91;;;15.29;100.00
52839;BME280;39219;53.678;9.856;2022-10-31T11:19:38;101941.94;;;15.18;100.00
52839;BME280;39219;53.678;9.856;2022-10-31T11:22:13;101933.84;;;15.21;100.00
52839;BME280;39219;53.678;9.856;2022-10-31T11:24:41;101938.34;;;15.19;100.00
52839;BME280;39219;53.678;9.856;2022-10-31T11:27:15;101935.94;;;15.08;100.00
52839;BME280;39219;53.678;9.856;2022-10-31T11:29:42;101930.81;;;14.97;100.00
52839;BME280;39219;53.678;9.856;2022-10-31T11:32:18;101929.31;;;14.85;100.00
52839;BME280;39219;53.678;9.856;2022-10-31T11:34:49;101934.53;;;14.91;100.00
52839;BME280;39219;53.678;9.856;2022-10-31T11:37:20;101924.81;;;14.87;100.00
52839;BME280;39219;53.678;9.856;2022-10-31T11:39:52;101925.81;;;14.83;100.00
52839;BME280;39219;53.678;9.856;2022-10-31T11:42:21;101929.63;;;14.71;100.00
52839;BME280;39219;53.678;9.856;2022-10-31T11:44:49;101920.13;;;14.56;100.00
52839;BME280;39219;53.678;9.856;2022-10-31T11:47:17;101933.41;;;14.59;100.00
52839;BME280;39219;53.678;9.856;2022-10-31T11:49:49;101937.78;;;14.63;100.00
52839;BME280;39219;53.678;9.856;2022-10-31T11:52:18;101935.00;;;14.70;100.00
52839;BME280;39219;53.678;9.856;2022-10-31T11:54:47;101930.44;;;14.75;100.00
52839;BME280;39219;53.678;9.856;2022-10-31T11:57:23;101930.50;;;14.72;100.00
52839;BME280;39219;53.678;9.856;2022-10-31T11:59:51;101917.97;;;14.74;100.00
52839;BME280;39219;53.678;9.856;2022-10-31T12:02:19;101916.84;;;14.86;100.00
52839;BME280;39219;53.678;9.856;2022-10-31T12:04:50;101907.66;;;14.96;100.00
52839;BME280;39219;53.678;9.856;2022-10-31T12:07:18;101911.13;;;15.01;100.00
52839;BME280;39219;53.678;9.856;2022-10-31T12:09:44;101911.75;;;15.13;100.00
52839;BME280;39219;53.678;9.856;2022-10-31T12:12:44;101910.47;;;15.29;100.00
52839;BME280;39219;53.678;9.856;2022-10-31T12:15:27;101905.66;;;15.44;100.00
52839;BME280;39219;53.678;9.856;2022-10-31T12:18:04;101905.75;;;15.39;100.00
52839;BME280;39219;53.678;9.856;2022-10-31T12:20:44;101911.31;;;15.30;100.00
52839;BME280;39219;53.678;9.856;2022-10-31T12:23:21;101900.13;;;15.14;100.00
52839;BME280;39219;53.678;9.856;2022-10-31T12:25:52;101899.13;;;15.19;100.00
52839;BME280;39219;53.678;9.856;2022-10-31T12:28:54;101902.56;;;15.23;100.00
52839;BME280;39219;53.678;9.856;2022-10-31T12:31:38;101900.28;;;15.07;100.00
52839;BME280;39219;53.678;9.856;2022-10-31T12:34:35;101896.72;;;15.07;100.00
52839;BME280;39219;53.678;9.856;2022-10-31T12:37:13;101894.47;;;15.26;100.00
52839;BME280;39219;53.678;9.856;2022-10-31T12:39:52;101891.44;;;15.40;100.00
52839;BME280;39219;53.678;9.856;2022-10-31T12:42:32;101900.53;;;15.33;100.00
52839;BME280;39219;53.678;9.856;2022-10-31T12:45:17;101895.13;;;15.36;100.00
52839;BME280;39219;53.678;9.856;2022-10-31T12:47:58;101883.06;;;15.54;100.00
52839;BME280;39219;53.678;9.856;2022-10-31T12:50:41;101885.97;;;15.79;100.00
52839;BME280;39219;53.678;9.856;2022-10-31T12:53:27;101892.03;;;15.88;100.00
52839;BME280;39219;53.678;9.856;2022-10-31T12:56:07;101888.38;;;15.90;100.00
52839;BME280;39219;53.678;9.856;2022-10-31T12:58:42;101888.44;;;15.89;100.00
52839;BME280;39219;53.678;9.856;2022-10-31T13:01:13;101882.25;;;15.87;100.00